sensor_id;sensor_type;location;lat;lon;timestamp;temperature;humidity
40374;DHT22;26079;45.958;12.492;2023-03-15T00:01:58;10.30;99.90
40374;DHT22;26079;45.958;12.492;2023-03-15T00:04:23;10.30;99.90
40374;DHT22;26079;45.958;12.492;2023-03-15T00:06:50;10.30;99.90
40374;DHT22;26079;45.958;12.492;2023-03-15T00:09:16;10.20;99.90
40374;DHT22;26079;45.958;12.492;2023-03-15T00:11:41;10.20;99.90
40374;DHT22;26079;45.958;12.492;2023-03-15T00:14:07;10.10;99.90
40374;DHT22;26079;45.958;12.492;2023-03-15T00:16:33;10.10;99.90
40374;DHT22;26079;45.958;12.492;2023-03-15T00:18:59;10.10;99.90
40374;DHT22;26079;45.958;12.492;2023-03-15T00:21:25;10.00;99.90
40374;DHT22;26079;45.958;12.492;2023-03-15T00:23:51;10.00;99.90
40374;DHT22;26079;45.958;12.492;2023-03-15T00:26:17;9.90;99.90
40374;DHT22;26079;45.958;12.492;2023-03-15T00:28:42;9.90;99.90
40374;DHT22;26079;45.958;12.492;2023-03-15T00:31:22;9.90;99.90
40374;DHT22;26079;45.958;12.492;2023-03-15T00:33:49;9.80;99.90
40374;DHT22;26079;45.958;12.492;2023-03-15T00:36:18;9.80;99.90
40374;DHT22;26079;45.958;12.492;2023-03-15T00:38:44;9.80;99.90
40374;DHT22;26079;45.958;12.492;2023-03-15T00:41:11;9.80;99.90
40374;DHT22;26079;45.958;12.492;2023-03-15T00:43:37;9.80;99.90
40374;DHT22;26079;45.958;12.492;2023-03-15T00:46:04;9.80;99.90
40374;DHT22;26079;45.958;12.492;2023-03-15T00:48:30;9.80;99.90
40374;DHT22;26079;45.958;12.492;2023-03-15T00:51:12;9.80;99.90
40374;DHT22;26079;45.958;12.492;2023-03-15T00:53:40;9.80;99.90
40374;DHT22;26079;45.958;12.492;2023-03-15T00:56:09;9.70;99.90
40374;DHT22;26079;45.958;12.492;2023-03-15T00:58:35;9.70;99.90
40374;DHT22;26079;45.958;12.492;2023-03-15T01:01:10;9.70;99.90
40374;DHT22;26079;45.958;12.492;2023-03-15T01:03:37;9.60;99.90
40374;DHT22;26079;45.958;12.492;2023-03-15T01:06:11;9.70;99.90
40374;DHT22;26079;45.958;12.492;2023-03-15T01:08:37;9.60;99.90
40374;DHT22;26079;45.958;12.492;2023-03-15T01:11:24;9.60;99.90
40374;DHT22;26079;45.958;12.492;2023-03-15T01:13:52;9.60;99.90
40374;DHT22;26079;45.958;12.492;2023-03-15T01:16:18;9.60;99.90
40374;DHT22;26079;45.958;12.492;2023-03-15T01:18:45;9.60;99.90
40374;DHT22;26079;45.958;12.492;2023-03-15T01:21:12;9.60;99.90
40374;DHT22;26079;45.958;12.492;2023-03-15T01:23:39;9.60;99.90
40374;DHT22;26079;45.958;12.492;2023-03-15T01:26:07;9.60;99.90
40374;DHT22;26079;45.958;12.492;2023-03-15T01:28:33;9.60;99.90
40374;DHT22;26079;45.958;12.492;2023-03-15T01:30:58;9.60;99.90
40374;DHT22;26079;45.958;12.492;2023-03-15T01:33:24;9.70;99.90
40374;DHT22;26079;45.958;12.492;2023-03-15T01:36:06;9.70;99.90
40374;DHT22;26079;45.958;12.492;2023-03-15T01:38:32;9.70;99.90
40374;DHT22;26079;45.958;12.492;2023-03-15T01:40:59;9.70;99.90
40374;DHT22;26079;45.958;12.492;2023-03-15T01:43:26;9.70;99.90
40374;DHT22;26079;45.958;12.492;2023-03-15T01:45:53;9.80;99.90
40374;DHT22;26079;45.958;12.492;2023-03-15T01:48:24;9.90;99.90
40374;DHT22;26079;45.958;12.492;2023-03-15T01:50:52;9.90;99.90
40374;DHT22;26079;45.958;12.492;2023-03-15T01:53:20;10.00;99.90
40374;DHT22;26079;45.958;12.492;2023-03-15T01:55:47;10.10;99.90
40374;DHT22;26079;45.958;12.492;2023-03-15T01:58:13;10.10;99.90
40374;DHT22;26079;45.958;12.492;2023-03-15T02:00:39;10.10;99.90
40374;DHT22;26079;45.958;12.492;2023-03-15T02:03:09;10.20;99.90
40374;DHT22;26079;45.958;12.492;2023-03-15T02:05:46;10.20;99.90
40374;DHT22;26079;45.958;12.492;2023-03-15T02:08:14;10.30;99.90
40374;DHT22;26079;45.958;12.492;2023-03-15T02:10:43;10.30;99.90
40374;DHT22;26079;45.958;12.492;2023-03-15T02:13:13;10.40;99.90
40374;DHT22;26079;45.958;12.492;2023-03-15T02:15:39;10.40;99.90
40374;DHT22;26079;45.958;12.492;2023-03-15T02:18:11;10.40;99.90
40374;DHT22;26079;45.958;12.492;2023-03-15T02:23:29;10.40;99.90
40374;DHT22;26079;45.958;12.492;2023-03-15T02:28:41;10.30;99.90
40374;DHT22;26079;45.958;12.492;2023-03-15T02:31:08;10.30;99.90
40374;DHT22;26079;45.958;12.492;2023-03-15T02:33:45;10.40;99.90
40374;DHT22;26079;45.958;12.492;2023-03-15T02:36:18;10.40;99.90
40374;DHT22;26079;45.958;12.492;2023-03-15T02:38:45;10.40;99.90
40374;DHT22;26079;45.958;12.492;2023-03-15T02:41:12;10.40;99.90
40374;DHT22;26079;45.958;12.492;2023-03-15T02:43:39;10.40;99.90
40374;DHT22;26079;45.958;12.492;2023-03-15T02:46:06;10.40;99.90
40374;DHT22;26079;45.958;12.492;2023-03-15T02:48:33;10.40;99.90
40374;DHT22;26079;45.958;12.492;2023-03-15T02:50:59;10.30;99.90
40374;DHT22;26079;45.958;12.492;2023-03-15T02:53:30;10.30;99.90
40374;DHT22;26079;45.958;12.492;2023-03-15T02:55:56;10.30;99.90
40374;DHT22;26079;45.958;12.492;2023-03-15T02:58:22;10.20;99.90
40374;DHT22;26079;45.958;12.492;2023-03-15T03:00:48;10.20;99.90
40374;DHT22;26079;45.958;12.492;2023-03-15T03:03:13;10.20;99.90
40374;DHT22;26079;45.958;12.492;2023-03-15T03:05:39;10.20;99.90
40374;DHT22;26079;45.958;12.492;2023-03-15T03:08:05;10.20;99.90
40374;DHT22;26079;45.958;12.492;2023-03-15T03:10:30;10.20;99.90
40374;DHT22;26079;45.958;12.492;2023-03-15T03:12:56;10.10;99.90
40374;DHT22;26079;45.958;12.492;2023-03-15T03:15:22;10.10;99.90
40374;DHT22;26079;45.958;12.492;2023-03-15T03:17:48;10.10;99.90
40374;DHT22;26079;45.958;12.492;2023-03-15T03:20:13;10.10;99.90
40374;DHT22;26079;45.958;12.492;2023-03-15T03:22:40;10.10;99.90
40374;DHT22;26079;45.958;12.492;2023-03-15T03:25:08;10.00;99.90
40374;DHT22;26079;45.958;12.492;2023-03-15T03:27:37;10.00;99.90
40374;DHT22;26079;45.958;12.492;2023-03-15T03:30:09;10.00;99.90
40374;DHT22;26079;45.958;12.492;2023-03-15T03:32:35;10.00;99.90
40374;DHT22;26079;45.958;12.492;2023-03-15T03:35:00;10.00;99.90
40374;DHT22;26079;45.958;12.492;2023-03-15T03:37:26;10.00;99.90
40374;DHT22;26079;45.958;12.492;2023-03-15T03:39:52;10.00;99.90
40374;DHT22;26079;45.958;12.492;2023-03-15T03:42:17;10.00;99.90
40374;DHT22;26079;45.958;12.492;2023-03-15T03:44:43;10.10;99.90
40374;DHT22;26079;45.958;12.492;2023-03-15T03:47:09;10.10;99.90
40374;DHT22;26079;45.958;12.492;2023-03-15T03:49:34;10.00;99.90
40374;DHT22;26079;45.958;12.492;2023-03-15T03:52:00;10.00;99.90
40374;DHT22;26079;45.958;12.492;2023-03-15T03:54:27;10.10;99.90
40374;DHT22;26079;45.958;12.492;2023-03-15T03:56:53;10.00;99.90
40374;DHT22;26079;45.958;12.492;2023-03-15T03:59:18;10.00;99.90
40374;DHT22;26079;45.958;12.492;2023-03-15T04:01:44;10.00;99.90
40374;DHT22;26079;45.958;12.492;2023-03-15T04:04:10;10.00;99.90
40374;DHT22;26079;45.958;12.492;2023-03-15T04:06:41;10.00;99.90
40374;DHT22;26079;45.958;12.492;2023-03-15T04:09:15;9.90;99.90
40374;DHT22;26079;45.958;12.492;2023-03-15T04:11:42;9.90;99.90
40374;DHT22;26079;45.958;12.492;2023-03-15T04:14:12;9.80;99.90
40374;DHT22;26079;45.958;12.492;2023-03-15T04:16:39;9.80;99.90
40374;DHT22;26079;45.958;12.492;2023-03-15T04:19:05;9.70;99.90
40374;DHT22;26079;45.958;12.492;2023-03-15T04:21:32;9.70;99.90
40374;DHT22;26079;45.958;12.492;2023-03-15T04:23:58;9.60;99.90
40374;DHT22;26079;45.958;12.492;2023-03-15T04:26:25;9.60;99.90
40374;DHT22;26079;45.958;12.492;2023-03-15T04:28:55;9.50;99.90
40374;DHT22;26079;45.958;12.492;2023-03-15T04:31:22;9.50;99.90
40374;DHT22;26079;45.958;12.492;2023-03-15T04:33:54;9.40;99.90
40374;DHT22;26079;45.958;12.492;2023-03-15T04:36:21;9.30;99.90
40374;DHT22;26079;45.958;12.492;2023-03-15T04:38:48;9.30;99.90
40374;DHT22;26079;45.958;12.492;2023-03-15T04:41:15;9.20;99.90
40374;DHT22;26079;45.958;12.492;2023-03-15T04:43:41;9.20;99.90
40374;DHT22;26079;45.958;12.492;2023-03-15T04:46:06;9.10;99.90
40374;DHT22;26079;45.958;12.492;2023-03-15T04:48:32;9.00;99.90
40374;DHT22;26079;45.958;12.492;2023-03-15T04:50:58;9.00;99.90
40374;DHT22;26079;45.958;12.492;2023-03-15T04:53:25;8.90;99.90
40374;DHT22;26079;45.958;12.492;2023-03-15T04:55:50;8.80;99.90
40374;DHT22;26079;45.958;12.492;2023-03-15T04:58:16;8.80;99.90
40374;DHT22;26079;45.958;12.492;2023-03-15T05:00:42;8.80;99.90
40374;DHT22;26079;45.958;12.492;2023-03-15T05:03:08;8.80;99.90
40374;DHT22;26079;45.958;12.492;2023-03-15T05:05:35;8.70;99.90
40374;DHT22;26079;45.958;12.492;2023-03-15T05:08:01;8.80;99.90
40374;DHT22;26079;45.958;12.492;2023-03-15T05:10:27;8.80;99.90
40374;DHT22;26079;45.958;12.492;2023-03-15T05:12:55;8.80;99.90
40374;DHT22;26079;45.958;12.492;2023-03-15T05:15:20;8.80;99.90
40374;DHT22;26079;45.958;12.492;2023-03-15T05:17:46;8.80;99.90
40374;DHT22;26079;45.958;12.492;2023-03-15T05:20:14;8.80;99.90
40374;DHT22;26079;45.958;12.492;2023-03-15T05:22:41;8.90;99.90
40374;DHT22;26079;45.958;12.492;2023-03-15T05:25:08;8.80;99.90
40374;DHT22;26079;45.958;12.492;2023-03-15T05:27:35;8.80;99.90
40374;DHT22;26079;45.958;12.492;2023-03-15T05:30:03;8.70;99.90
40374;DHT22;26079;45.958;12.492;2023-03-15T05:32:29;8.70;99.90
40374;DHT22;26079;45.958;12.492;2023-03-15T05:35:02;8.60;99.90
40374;DHT22;26079;45.958;12.492;2023-03-15T05:37:29;8.60;99.90
40374;DHT22;26079;45.958;12.492;2023-03-15T05:39:56;8.60;99.90
40374;DHT22;26079;45.958;12.492;2023-03-15T05:42:22;8.60;99.90
40374;DHT22;26079;45.958;12.492;2023-03-15T05:44:54;8.60;99.90
40374;DHT22;26079;45.958;12.492;2023-03-15T05:47:21;8.60;99.90
40374;DHT22;26079;45.958;12.492;2023-03-15T05:49:47;8.60;99.90
40374;DHT22;26079;45.958;12.492;2023-03-15T05:52:13;8.60;99.90
40374;DHT22;26079;45.958;12.492;2023-03-15T05:54:39;8.60;99.90
40374;DHT22;26079;45.958;12.492;2023-03-15T05:57:05;8.60;99.90
40374;DHT22;26079;45.958;12.492;2023-03-15T05:59:31;8.70;99.90
40374;DHT22;26079;45.958;12.492;2023-03-15T06:01:57;8.70;99.90
40374;DHT22;26079;45.958;12.492;2023-03-15T06:04:22;8.70;99.90
40374;DHT22;26079;45.958;12.492;2023-03-15T06:06:49;8.80;99.90
40374;DHT22;26079;45.958;12.492;2023-03-15T06:09:15;8.70;99.90
40374;DHT22;26079;45.958;12.492;2023-03-15T06:11:41;8.70;99.90
40374;DHT22;26079;45.958;12.492;2023-03-15T06:14:06;8.70;99.90
40374;DHT22;26079;45.958;12.492;2023-03-15T06:16:32;8.80;99.90
40374;DHT22;26079;45.958;12.492;2023-03-15T06:18:58;8.90;99.90
40374;DHT22;26079;45.958;12.492;2023-03-15T06:21:23;8.90;99.90
40374;DHT22;26079;45.958;12.492;2023-03-15T06:23:49;9.00;99.90
40374;DHT22;26079;45.958;12.492;2023-03-15T06:26:15;9.10;99.90
40374;DHT22;26079;45.958;12.492;2023-03-15T06:28:43;9.10;99.90
40374;DHT22;26079;45.958;12.492;2023-03-15T06:31:10;9.20;99.90
40374;DHT22;26079;45.958;12.492;2023-03-15T06:33:36;9.30;99.90
40374;DHT22;26079;45.958;12.492;2023-03-15T06:36:02;9.30;99.90
40374;DHT22;26079;45.958;12.492;2023-03-15T06:38:28;9.30;99.90
40374;DHT22;26079;45.958;12.492;2023-03-15T06:40:56;9.40;99.90
40374;DHT22;26079;45.958;12.492;2023-03-15T06:43:24;9.40;99.90
40374;DHT22;26079;45.958;12.492;2023-03-15T06:45:50;9.50;99.90
40374;DHT22;26079;45.958;12.492;2023-03-15T06:48:15;9.50;99.90
40374;DHT22;26079;45.958;12.492;2023-03-15T06:50:42;9.60;99.90
40374;DHT22;26079;45.958;12.492;2023-03-15T06:53:07;9.60;99.90
40374;DHT22;26079;45.958;12.492;2023-03-15T06:55:33;9.80;99.90
40374;DHT22;26079;45.958;12.492;2023-03-15T06:57:59;9.80;99.90
40374;DHT22;26079;45.958;12.492;2023-03-15T07:00:25;10.00;99.90
40374;DHT22;26079;45.958;12.492;2023-03-15T07:02:50;10.10;99.90
40374;DHT22;26079;45.958;12.492;2023-03-15T07:05:16;10.10;99.90
40374;DHT22;26079;45.958;12.492;2023-03-15T07:07:42;10.20;98.50
40374;DHT22;26079;45.958;12.492;2023-03-15T07:10:08;10.20;97.80
40374;DHT22;26079;45.958;12.492;2023-03-15T07:12:35;10.30;96.20
40374;DHT22;26079;45.958;12.492;2023-03-15T07:15:00;10.30;95.60
40374;DHT22;26079;45.958;12.492;2023-03-15T07:17:26;10.40;97.80
40374;DHT22;26079;45.958;12.492;2023-03-15T07:19:52;10.40;98.20
40374;DHT22;26079;45.958;12.492;2023-03-15T07:22:17;10.40;96.20
40374;DHT22;26079;45.958;12.492;2023-03-15T07:24:43;10.30;95.60
40374;DHT22;26079;45.958;12.492;2023-03-15T07:27:12;10.40;95.40
40374;DHT22;26079;45.958;12.492;2023-03-15T07:29:38;10.40;97.80
40374;DHT22;26079;45.958;12.492;2023-03-15T07:32:04;10.40;96.40
40374;DHT22;26079;45.958;12.492;2023-03-15T07:34:30;10.40;95.50
40374;DHT22;26079;45.958;12.492;2023-03-15T07:36:55;10.40;95.90
40374;DHT22;26079;45.958;12.492;2023-03-15T07:39:21;10.40;95.60
40374;DHT22;26079;45.958;12.492;2023-03-15T07:41:48;10.40;97.00
40374;DHT22;26079;45.958;12.492;2023-03-15T07:44:13;10.50;93.20
40374;DHT22;26079;45.958;12.492;2023-03-15T07:46:39;10.50;96.40
40374;DHT22;26079;45.958;12.492;2023-03-15T07:49:05;10.60;94.40
40374;DHT22;26079;45.958;12.492;2023-03-15T07:51:31;10.60;90.40
40374;DHT22;26079;45.958;12.492;2023-03-15T07:53:57;10.80;90.30
40374;DHT22;26079;45.958;12.492;2023-03-15T07:56:22;10.90;90.00
40374;DHT22;26079;45.958;12.492;2023-03-15T07:58:48;11.00;89.60
40374;DHT22;26079;45.958;12.492;2023-03-15T08:01:14;11.10;89.30
40374;DHT22;26079;45.958;12.492;2023-03-15T08:03:40;11.10;89.80
40374;DHT22;26079;45.958;12.492;2023-03-15T08:06:06;11.20;89.50
40374;DHT22;26079;45.958;12.492;2023-03-15T08:08:32;11.10;90.70
40374;DHT22;26079;45.958;12.492;2023-03-15T08:10:57;11.10;90.40
40374;DHT22;26079;45.958;12.492;2023-03-15T08:13:24;11.10;90.10
40374;DHT22;26079;45.958;12.492;2023-03-15T08:15:50;11.10;89.90
40374;DHT22;26079;45.958;12.492;2023-03-15T08:18:16;11.20;90.10
40374;DHT22;26079;45.958;12.492;2023-03-15T08:20:41;11.20;90.30
40374;DHT22;26079;45.958;12.492;2023-03-15T08:23:08;11.30;90.10
40374;DHT22;26079;45.958;12.492;2023-03-15T08:25:34;11.30;90.90
40374;DHT22;26079;45.958;12.492;2023-03-15T08:28:05;11.30;89.90
40374;DHT22;26079;45.958;12.492;2023-03-15T08:30:30;11.40;89.80
40374;DHT22;26079;45.958;12.492;2023-03-15T08:35:40;11.40;91.00
40374;DHT22;26079;45.958;12.492;2023-03-15T08:38:06;11.20;90.60
40374;DHT22;26079;45.958;12.492;2023-03-15T08:40:31;11.20;91.00
40374;DHT22;26079;45.958;12.492;2023-03-15T08:42:58;11.20;91.70
40374;DHT22;26079;45.958;12.492;2023-03-15T08:45:25;11.20;91.50
40374;DHT22;26079;45.958;12.492;2023-03-15T08:47:58;11.20;90.90
40374;DHT22;26079;45.958;12.492;2023-03-15T08:50:25;11.10;90.90
40374;DHT22;26079;45.958;12.492;2023-03-15T08:52:51;11.00;90.20
40374;DHT22;26079;45.958;12.492;2023-03-15T08:55:16;10.90;90.20
40374;DHT22;26079;45.958;12.492;2023-03-15T08:57:42;10.80;91.90
40374;DHT22;26079;45.958;12.492;2023-03-15T09:00:09;10.70;90.50
40374;DHT22;26079;45.958;12.492;2023-03-15T09:02:46;10.70;91.40
40374;DHT22;26079;45.958;12.492;2023-03-15T09:05:13;10.60;91.80
40374;DHT22;26079;45.958;12.492;2023-03-15T09:07:41;10.50;92.80
40374;DHT22;26079;45.958;12.492;2023-03-15T09:10:08;10.50;92.50
40374;DHT22;26079;45.958;12.492;2023-03-15T09:12:35;10.40;92.20
40374;DHT22;26079;45.958;12.492;2023-03-15T09:15:00;10.40;92.70
40374;DHT22;26079;45.958;12.492;2023-03-15T09:17:26;10.50;91.90
40374;DHT22;26079;45.958;12.492;2023-03-15T09:19:52;10.50;91.40
40374;DHT22;26079;45.958;12.492;2023-03-15T09:22:17;10.60;92.90
40374;DHT22;26079;45.958;12.492;2023-03-15T09:24:43;10.70;92.30
40374;DHT22;26079;45.958;12.492;2023-03-15T09:27:09;10.70;90.30
40374;DHT22;26079;45.958;12.492;2023-03-15T09:29:36;10.80;90.80
40374;DHT22;26079;45.958;12.492;2023-03-15T09:32:02;10.90;91.30
40374;DHT22;26079;45.958;12.492;2023-03-15T09:34:28;11.00;89.00
40374;DHT22;26079;45.958;12.492;2023-03-15T09:36:54;11.10;88.20
40374;DHT22;26079;45.958;12.492;2023-03-15T09:39:20;11.20;88.90
40374;DHT22;26079;45.958;12.492;2023-03-15T09:41:52;11.30;85.90
40374;DHT22;26079;45.958;12.492;2023-03-15T09:44:39;11.40;85.10
40374;DHT22;26079;45.958;12.492;2023-03-15T09:47:27;11.50;84.50
40374;DHT22;26079;45.958;12.492;2023-03-15T09:52:38;11.60;84.40
40374;DHT22;26079;45.958;12.492;2023-03-15T09:55:22;11.60;82.00
40374;DHT22;26079;45.958;12.492;2023-03-15T09:57:57;11.70;81.00
40374;DHT22;26079;45.958;12.492;2023-03-15T10:00:55;11.70;81.30
40374;DHT22;26079;45.958;12.492;2023-03-15T10:03:33;11.60;79.20
40374;DHT22;26079;45.958;12.492;2023-03-15T10:06:11;11.70;78.90
40374;DHT22;26079;45.958;12.492;2023-03-15T10:08:37;11.80;79.10
40374;DHT22;26079;45.958;12.492;2023-03-15T10:11:07;12.10;80.60
40374;DHT22;26079;45.958;12.492;2023-03-15T10:16:43;12.60;76.70
40374;DHT22;26079;45.958;12.492;2023-03-15T10:19:32;12.60;77.90
40374;DHT22;26079;45.958;12.492;2023-03-15T10:22:00;12.60;77.20
40374;DHT22;26079;45.958;12.492;2023-03-15T10:24:52;12.60;76.70
40374;DHT22;26079;45.958;12.492;2023-03-15T10:29:55;12.50;72.10
40374;DHT22;26079;45.958;12.492;2023-03-15T10:32:26;12.60;74.40
40374;DHT22;26079;45.958;12.492;2023-03-15T10:34:55;12.60;72.20
40374;DHT22;26079;45.958;12.492;2023-03-15T10:37:22;12.60;72.50
40374;DHT22;26079;45.958;12.492;2023-03-15T10:39:52;12.70;72.70
40374;DHT22;26079;45.958;12.492;2023-03-15T10:42:37;12.80;73.70
40374;DHT22;26079;45.958;12.492;2023-03-15T10:45:19;13.00;72.00
40374;DHT22;26079;45.958;12.492;2023-03-15T10:47:46;13.00;71.90
40374;DHT22;26079;45.958;12.492;2023-03-15T10:50:30;13.00;71.60
40374;DHT22;26079;45.958;12.492;2023-03-15T10:52:57;12.90;70.60
40374;DHT22;26079;45.958;12.492;2023-03-15T10:55:32;13.00;73.70
40374;DHT22;26079;45.958;12.492;2023-03-15T10:58:21;13.00;74.50
40374;DHT22;26079;45.958;12.492;2023-03-15T11:00:52;13.30;74.70
40374;DHT22;26079;45.958;12.492;2023-03-15T11:03:20;13.50;73.50
40374;DHT22;26079;45.958;12.492;2023-03-15T11:05:49;13.50;72.60
40374;DHT22;26079;45.958;12.492;2023-03-15T11:08:18;13.40;73.10
40374;DHT22;26079;45.958;12.492;2023-03-15T11:10:47;13.70;73.90
40374;DHT22;26079;45.958;12.492;2023-03-15T11:13:28;13.80;73.70
40374;DHT22;26079;45.958;12.492;2023-03-15T11:18:59;13.90;72.10
40374;DHT22;26079;45.958;12.492;2023-03-15T11:21:30;13.80;73.80
40374;DHT22;26079;45.958;12.492;2023-03-15T11:24:04;13.70;73.30
40374;DHT22;26079;45.958;12.492;2023-03-15T11:26:38;13.70;73.50
40374;DHT22;26079;45.958;12.492;2023-03-15T11:31:36;13.70;73.60
40374;DHT22;26079;45.958;12.492;2023-03-15T11:36:56;13.60;72.00
40374;DHT22;26079;45.958;12.492;2023-03-15T11:39:34;13.60;72.10
40374;DHT22;26079;45.958;12.492;2023-03-15T11:42:05;13.60;72.20
40374;DHT22;26079;45.958;12.492;2023-03-15T11:44:46;13.70;72.60
40374;DHT22;26079;45.958;12.492;2023-03-15T11:49:53;14.10;73.40
40374;DHT22;26079;45.958;12.492;2023-03-15T11:52:24;14.20;71.40
40374;DHT22;26079;45.958;12.492;2023-03-15T11:55:00;14.30;69.10
40374;DHT22;26079;45.958;12.492;2023-03-15T11:57:44;14.40;69.70
40374;DHT22;26079;45.958;12.492;2023-03-15T12:03:29;14.60;69.80
40374;DHT22;26079;45.958;12.492;2023-03-15T12:06:08;14.70;68.40
40374;DHT22;26079;45.958;12.492;2023-03-15T12:08:50;14.60;67.70
40374;DHT22;26079;45.958;12.492;2023-03-15T12:16:25;14.30;69.30
40374;DHT22;26079;45.958;12.492;2023-03-15T12:18:56;14.20;68.80
40374;DHT22;26079;45.958;12.492;2023-03-15T12:21:31;14.20;71.20
40374;DHT22;26079;45.958;12.492;2023-03-15T12:24:04;14.10;70.60
40374;DHT22;26079;45.958;12.492;2023-03-15T12:26:38;14.00;72.80
40374;DHT22;26079;45.958;12.492;2023-03-15T12:37:17;14.40;69.50
40374;DHT22;26079;45.958;12.492;2023-03-15T12:39:48;14.50;69.10
40374;DHT22;26079;45.958;12.492;2023-03-15T12:58:45;14.40;68.30
40374;DHT22;26079;45.958;12.492;2023-03-15T13:01:14;14.20;68.60
40374;DHT22;26079;45.958;12.492;2023-03-15T13:03:41;14.10;70.60
40374;DHT22;26079;45.958;12.492;2023-03-15T13:06:18;14.00;69.90
40374;DHT22;26079;45.958;12.492;2023-03-15T13:11:41;14.00;69.70
40374;DHT22;26079;45.958;12.492;2023-03-15T13:19:35;13.60;69.90
40374;DHT22;26079;45.958;12.492;2023-03-15T13:22:14;13.60;70.40
40374;DHT22;26079;45.958;12.492;2023-03-15T13:33:04;13.60;70.20
40374;DHT22;26079;45.958;12.492;2023-03-15T13:35:30;13.70;69.40
40374;DHT22;26079;45.958;12.492;2023-03-15T13:38:20;13.70;71.00
40374;DHT22;26079;45.958;12.492;2023-03-15T13:40:47;13.60;71.70
40374;DHT22;26079;45.958;12.492;2023-03-15T13:43:13;13.50;72.70
40374;DHT22;26079;45.958;12.492;2023-03-15T13:45:41;13.50;72.60
40374;DHT22;26079;45.958;12.492;2023-03-15T13:48:08;13.50;73.30
40374;DHT22;26079;45.958;12.492;2023-03-15T13:50:34;13.60;73.10
40374;DHT22;26079;45.958;12.492;2023-03-15T13:53:00;13.70;72.40
40374;DHT22;26079;45.958;12.492;2023-03-15T13:55:31;13.80;71.60
40374;DHT22;26079;45.958;12.492;2023-03-15T13:57:59;13.90;70.60
40374;DHT22;26079;45.958;12.492;2023-03-15T14:00:30;13.80;71.20
40374;DHT22;26079;45.958;12.492;2023-03-15T14:03:21;13.90;71.60
40374;DHT22;26079;45.958;12.492;2023-03-15T14:05:51;14.10;70.50
40374;DHT22;26079;45.958;12.492;2023-03-15T14:08:22;14.30;68.60
40374;DHT22;26079;45.958;12.492;2023-03-15T14:13:34;14.30;70.30
40374;DHT22;26079;45.958;12.492;2023-03-15T14:16:14;14.20;70.70
40374;DHT22;26079;45.958;12.492;2023-03-15T14:18:41;14.00;69.70
40374;DHT22;26079;45.958;12.492;2023-03-15T14:21:14;13.80;69.20
40374;DHT22;26079;45.958;12.492;2023-03-15T14:23:43;13.70;70.40
40374;DHT22;26079;45.958;12.492;2023-03-15T14:26:21;13.80;69.80
40374;DHT22;26079;45.958;12.492;2023-03-15T14:28:56;13.90;69.90
40374;DHT22;26079;45.958;12.492;2023-03-15T14:31:31;13.90;70.40
40374;DHT22;26079;45.958;12.492;2023-03-15T14:34:35;13.90;69.60
40374;DHT22;26079;45.958;12.492;2023-03-15T14:37:06;13.80;68.20
40374;DHT22;26079;45.958;12.492;2023-03-15T14:39:37;13.80;68.40
40374;DHT22;26079;45.958;12.492;2023-03-15T14:42:04;13.80;68.70
40374;DHT22;26079;45.958;12.492;2023-03-15T14:44:30;13.80;68.80
40374;DHT22;26079;45.958;12.492;2023-03-15T14:46:56;13.70;68.00
40374;DHT22;26079;45.958;12.492;2023-03-15T14:49:24;13.60;69.10
40374;DHT22;26079;45.958;12.492;2023-03-15T14:54:22;13.50;66.60
40374;DHT22;26079;45.958;12.492;2023-03-15T14:56:48;13.40;69.20
40374;DHT22;26079;45.958;12.492;2023-03-15T14:59:14;13.20;70.00
40374;DHT22;26079;45.958;12.492;2023-03-15T15:01:43;13.10;69.50
40374;DHT22;26079;45.958;12.492;2023-03-15T15:04:11;13.10;69.30
40374;DHT22;26079;45.958;12.492;2023-03-15T15:06:36;13.00;70.00
40374;DHT22;26079;45.958;12.492;2023-03-15T15:09:03;12.90;73.30
40374;DHT22;26079;45.958;12.492;2023-03-15T15:11:30;12.80;70.30
40374;DHT22;26079;45.958;12.492;2023-03-15T15:13:56;12.80;69.80
40374;DHT22;26079;45.958;12.492;2023-03-15T15:16:22;12.90;68.40
40374;DHT22;26079;45.958;12.492;2023-03-15T15:18:48;13.00;68.30
40374;DHT22;26079;45.958;12.492;2023-03-15T15:21:28;13.10;69.50
40374;DHT22;26079;45.958;12.492;2023-03-15T15:23:55;13.20;69.40
40374;DHT22;26079;45.958;12.492;2023-03-15T15:26:22;13.20;69.80
40374;DHT22;26079;45.958;12.492;2023-03-15T15:28:50;13.30;67.40
40374;DHT22;26079;45.958;12.492;2023-03-15T15:31:19;13.20;65.00
40374;DHT22;26079;45.958;12.492;2023-03-15T15:33:47;13.20;66.40
40374;DHT22;26079;45.958;12.492;2023-03-15T15:36:26;13.10;67.90
40374;DHT22;26079;45.958;12.492;2023-03-15T15:38:52;12.90;68.30
40374;DHT22;26079;45.958;12.492;2023-03-15T15:41:23;12.90;68.30
40374;DHT22;26079;45.958;12.492;2023-03-15T15:43:49;12.80;68.00
40374;DHT22;26079;45.958;12.492;2023-03-15T15:46:15;12.90;69.00
40374;DHT22;26079;45.958;12.492;2023-03-15T15:48:41;12.80;67.30
40374;DHT22;26079;45.958;12.492;2023-03-15T15:53:44;13.00;67.10
40374;DHT22;26079;45.958;12.492;2023-03-15T15:56:10;13.00;67.10
40374;DHT22;26079;45.958;12.492;2023-03-15T15:58:40;13.10;67.70
40374;DHT22;26079;45.958;12.492;2023-03-15T16:01:06;13.30;66.80
40374;DHT22;26079;45.958;12.492;2023-03-15T16:03:32;13.30;65.50
40374;DHT22;26079;45.958;12.492;2023-03-15T16:05:57;13.30;64.60
40374;DHT22;26079;45.958;12.492;2023-03-15T16:08:24;13.30;65.70
40374;DHT22;26079;45.958;12.492;2023-03-15T16:10:50;13.20;67.40
40374;DHT22;26079;45.958;12.492;2023-03-15T16:13:16;13.10;67.20
40374;DHT22;26079;45.958;12.492;2023-03-15T16:15:42;13.00;68.20
40374;DHT22;26079;45.958;12.492;2023-03-15T16:18:09;12.80;70.10
40374;DHT22;26079;45.958;12.492;2023-03-15T16:20:35;12.60;69.10
40374;DHT22;26079;45.958;12.492;2023-03-15T16:23:01;12.40;70.30
40374;DHT22;26079;45.958;12.492;2023-03-15T16:25:29;12.30;71.70
40374;DHT22;26079;45.958;12.492;2023-03-15T16:27:59;12.10;70.90
40374;DHT22;26079;45.958;12.492;2023-03-15T16:30:28;12.00;72.20
40374;DHT22;26079;45.958;12.492;2023-03-15T16:32:58;11.90;71.00
40374;DHT22;26079;45.958;12.492;2023-03-15T16:35:31;11.90;72.40
40374;DHT22;26079;45.958;12.492;2023-03-15T16:37:58;11.90;72.60
40374;DHT22;26079;45.958;12.492;2023-03-15T16:40:29;11.80;71.30
40374;DHT22;26079;45.958;12.492;2023-03-15T16:42:56;11.70;72.10
40374;DHT22;26079;45.958;12.492;2023-03-15T16:45:22;11.70;71.50
40374;DHT22;26079;45.958;12.492;2023-03-15T16:47:48;11.70;72.00
40374;DHT22;26079;45.958;12.492;2023-03-15T16:50:14;11.60;71.90
40374;DHT22;26079;45.958;12.492;2023-03-15T16:52:41;11.60;74.50
40374;DHT22;26079;45.958;12.492;2023-03-15T16:55:17;11.50;74.10